SBFLSBPA

Guest
Details From SBFL - Hercillo Luz
To SBPA - Salgado Filho
Flight Number -
Tags decoded
Created
Modified
Stats Distance 232 nm / 429 km
Max Altitude 0 ft / 0 m
Waypoints 5
Social Downloads 1
Likes 0
Share VATSIM

Download

Looking for another format? Having issues loading an existing format? Contact us
Advertisement - Login to hide

Notes

Requested: SBFL FNP SW FB AJAX LENE IP SBPA Unmatched points: FNP AJAX LENE

Route

SBFL SW FB IP SBPA

ID Type Via Altitude Latitude Longitude Leg Dist Tot Dist Heading (true) Name
O SBFL APT - 0 ft / 0 m -27.67049˚ -48.54718˚ - 0 nm - Hercillo Luz
SW NDB - 0 ft / 0 m -28.60383˚ -48.81383˚ 57 nm 57 nm 194° / 194° SANTA MARTA NDB
FB NDB - 0 ft / 0 m -29.99633˚ -50.14500˚ 108 nm 166 nm 219° / 220° TRAMANDAI NDB
IP NDB - 0 ft / 0 m -29.99300˚ -51.28167˚ 59 nm 225 nm 270° / 270° GUAIBA NDB
O SBPA APT - 0 ft / 0 m -29.99443˚ -51.17143˚ 5 nm 231 nm 91° / 91° Salgado Filho

Altitude Profile

Advertisement - Login to hide

Weather


0- 5 10 15 20 25 30 35+ Temperature / ° C

Clouds and Precipitation
Forecast for 2017-12-13 06:00 UTC. Updated 7 minutes ago

Ground ~20,000 ft ~40,000 ft Winds

SBFL

Details ICAO SBFL (FLN)
Name Hercillo Luz
Region Brazil
Timezone America/Sao_Paulo (UTC-2.0)
Stats Elevation 19 ft / 6 m (AMSL)
Location -27.670487° -48.547180°
Runways 2
Magnetic Variation 19.320° W

METAR

SBFL 130500Z 35007KT 9999 BKN045 21/16 Q1017

Decode

TAF

TAF SBFL 122130Z 1300/1324 11011KT 9999 FEW040 TN20/1308Z TX27/1317Z BECMG 1310/1312 34005KT 9999 SCT020 BECMG 1316/1318 01017KT SCT030 BECMG 1320/1322 01012KT SCT020 RMK PDV

Decode

Departure Runways

ID Width Length Bearing (true) Bearing (mag) Surface Threshold Offset Overrun Length
03 148 ft / 45 m 4,939 ft / 1,505 m 11.55° 30.87° Concrete 0 ft / 0 m 0 ft / 0 m
14 148 ft / 45 m 7,543 ft / 2,299 m 121.30° 140.62° Asphalt 720 ft / 219 m 0 ft / 0 m
21 148 ft / 45 m 4,939 ft / 1,505 m 191.55° 210.87° Concrete 0 ft / 0 m 0 ft / 0 m
32 148 ft / 45 m 7,543 ft / 2,299 m 301.29° 320.61° Asphalt 0 ft / 0 m 200 ft / 61 m

SBPA

Details ICAO SBPA (POA)
Name Salgado Filho
Region Brazil
Timezone America/Sao_Paulo (UTC-2.0)
Stats Elevation 11 ft / 3 m (AMSL)
Location -29.994428° -51.171426°
Runways 1
Magnetic Variation 16.878° W

METAR

SBPA 130500Z 09006KT CAVOK 18/15 Q1013

Decode

TAF

Not found

Destination Runways

ID Width Length Bearing (true) Bearing (mag) Surface Threshold Offset Overrun Length
11 138 ft / 42 m 7,487 ft / 2,282 m 91.60° 108.48° Asphalt 0 ft / 0 m 230 ft / 70 m
29 138 ft / 42 m 7,487 ft / 2,282 m 271.59° 288.47° Asphalt 0 ft / 0 m 197 ft / 60 m

Approach Navaids

Runway Type Ident Frequency Range Bearing (true) Bearing (mag) Slope Elevation
11 Localiser IPA 110.30 MHz 18 nm / 33 km 90.92° 107.80° - 11 ft / 3 m (AMSL)
11 Glidescope IPA 110.30 MHz 10 nm / 19 km 91.60° 108.47° 3.00° 11 ft / 3 m (AMSL)

Popular Alternatives